Ardgay, United Kingdom
Current Conditions -  °F | °C
As of 6:20 AM on Sunday 26 Oct 2014 (Local Time) from EGPE Reporting Station
Light Rain Light Rain  
Wind Chill: 50°   Ceiling: 4400
Heat Index: 50°   Visibility: 6mi
Dew Point: 48°   Wind: 23mph
Humidity: 94%   Direction: 210°SSW
Pressure: 29.44"   Gusts: NA
Location:  57.9°N, 4.35°W
Report Text: EGPE 260520Z 21020KT 9999 -RA FEW020 BKN044 10/09 Q0997
Loading
Personal Weather Stations






























Interactive Weather Map
Tropical Storm Tracking
New forecast layout! Learn more

10-Day Weather Forecast

Advertisements
Track Severe Weather on mobile